METAR Data
IDs: Format: Raw Decoded Include TAF

Data at: 0758 UTC 01 Aug 2021

EGBB 010750Z 32007KT 4500 DZ SCT009 BKN013 OVC033 12/12 Q1011